sensor_id;sensor_type;location;lat;lon;timestamp;P1;durP1;ratioP1;P2;durP2;ratioP2
10987;SDS011;5547;42.672;23.230;2023-06-04T00:00:56;20.60;;;14.83;;
10987;SDS011;5547;42.672;23.230;2023-06-04T00:03:58;22.65;;;16.55;;
10987;SDS011;5547;42.672;23.230;2023-06-04T00:06:58;21.53;;;15.23;;
10987;SDS011;5547;42.672;23.230;2023-06-04T00:09:59;20.47;;;15.30;;
10987;SDS011;5547;42.672;23.230;2023-06-04T00:13:00;18.27;;;14.80;;
10987;SDS011;5547;42.672;23.230;2023-06-04T00:16:00;19.27;;;14.20;;
10987;SDS011;5547;42.672;23.230;2023-06-04T00:19:01;18.30;;;13.80;;
10987;SDS011;5547;42.672;23.230;2023-06-04T00:22:02;19.02;;;13.93;;
10987;SDS011;5547;42.672;23.230;2023-06-04T00:25:03;18.87;;;14.30;;
10987;SDS011;5547;42.672;23.230;2023-06-04T00:28:04;17.58;;;13.65;;
10987;SDS011;5547;42.672;23.230;2023-06-04T00:31:05;17.63;;;13.63;;
10987;SDS011;5547;42.672;23.230;2023-06-04T00:34:10;16.88;;;14.15;;
10987;SDS011;5547;42.672;23.230;2023-06-04T00:37:10;17.00;;;13.25;;
10987;SDS011;5547;42.672;23.230;2023-06-04T00:40:11;20.87;;;13.87;;
10987;SDS011;5547;42.672;23.230;2023-06-04T00:43:12;19.93;;;14.13;;
10987;SDS011;5547;42.672;23.230;2023-06-04T00:46:13;18.80;;;14.18;;
10987;SDS011;5547;42.672;23.230;2023-06-04T00:49:18;17.55;;;14.02;;
10987;SDS011;5547;42.672;23.230;2023-06-04T00:52:18;17.07;;;13.73;;
10987;SDS011;5547;42.672;23.230;2023-06-04T00:55:18;16.60;;;12.87;;
10987;SDS011;5547;42.672;23.230;2023-06-04T00:58:19;17.50;;;13.53;;
10987;SDS011;5547;42.672;23.230;2023-06-04T01:01:25;18.00;;;13.73;;
10987;SDS011;5547;42.672;23.230;2023-06-04T01:04:34;18.65;;;13.57;;
10987;SDS011;5547;42.672;23.230;2023-06-04T01:07:53;16.27;;;12.83;;
10987;SDS011;5547;42.672;23.230;2023-06-04T01:10:54;19.67;;;14.38;;
10987;SDS011;5547;42.672;23.230;2023-06-04T01:13:58;21.53;;;15.53;;
10987;SDS011;5547;42.672;23.230;2023-06-04T01:17:42;21.55;;;15.10;;
10987;SDS011;5547;42.672;23.230;2023-06-04T01:20:41;22.90;;;15.35;;
10987;SDS011;5547;42.672;23.230;2023-06-04T01:23:48;22.40;;;14.93;;
10987;SDS011;5547;42.672;23.230;2023-06-04T01:26:58;24.67;;;15.80;;
10987;SDS011;5547;42.672;23.230;2023-06-04T01:29:59;24.58;;;15.60;;
10987;SDS011;5547;42.672;23.230;2023-06-04T01:33:00;21.38;;;14.68;;
10987;SDS011;5547;42.672;23.230;2023-06-04T01:36:01;22.15;;;14.57;;
10987;SDS011;5547;42.672;23.230;2023-06-04T01:39:02;19.90;;;13.77;;
10987;SDS011;5547;42.672;23.230;2023-06-04T01:42:02;15.40;;;11.88;;
10987;SDS011;5547;42.672;23.230;2023-06-04T01:45:03;14.97;;;11.30;;
10987;SDS011;5547;42.672;23.230;2023-06-04T01:48:05;14.05;;;10.35;;
10987;SDS011;5547;42.672;23.230;2023-06-04T01:51:06;13.43;;;10.10;;
10987;SDS011;5547;42.672;23.230;2023-06-04T01:54:06;12.63;;;8.87;;
10987;SDS011;5547;42.672;23.230;2023-06-04T01:57:07;10.53;;;8.57;;
10987;SDS011;5547;42.672;23.230;2023-06-04T02:00:08;10.95;;;8.10;;
10987;SDS011;5547;42.672;23.230;2023-06-04T02:03:10;11.40;;;8.70;;
10987;SDS011;5547;42.672;23.230;2023-06-04T02:06:12;9.98;;;7.82;;
10987;SDS011;5547;42.672;23.230;2023-06-04T02:09:13;10.93;;;8.70;;
10987;SDS011;5547;42.672;23.230;2023-06-04T02:12:14;11.35;;;9.55;;
10987;SDS011;5547;42.672;23.230;2023-06-04T02:15:14;13.17;;;9.27;;
10987;SDS011;5547;42.672;23.230;2023-06-04T02:18:15;11.57;;;9.20;;
10987;SDS011;5547;42.672;23.230;2023-06-04T02:21:18;17.35;;;12.77;;
10987;SDS011;5547;42.672;23.230;2023-06-04T02:24:18;16.27;;;12.00;;
10987;SDS011;5547;42.672;23.230;2023-06-04T02:27:18;16.77;;;12.00;;
10987;SDS011;5547;42.672;23.230;2023-06-04T02:30:20;17.38;;;12.00;;
10987;SDS011;5547;42.672;23.230;2023-06-04T02:33:20;18.50;;;11.70;;
10987;SDS011;5547;42.672;23.230;2023-06-04T02:36:21;15.98;;;11.52;;
10987;SDS011;5547;42.672;23.230;2023-06-04T02:39:21;14.20;;;10.33;;
10987;SDS011;5547;42.672;23.230;2023-06-04T02:42:22;11.07;;;8.67;;
10987;SDS011;5547;42.672;23.230;2023-06-04T02:45:22;12.57;;;9.47;;
10987;SDS011;5547;42.672;23.230;2023-06-04T02:48:25;11.75;;;8.77;;
10987;SDS011;5547;42.672;23.230;2023-06-04T02:51:25;11.15;;;9.45;;
10987;SDS011;5547;42.672;23.230;2023-06-04T02:54:25;11.75;;;9.48;;
10987;SDS011;5547;42.672;23.230;2023-06-04T02:57:26;12.03;;;8.83;;
10987;SDS011;5547;42.672;23.230;2023-06-04T03:00:26;9.40;;;7.80;;
10987;SDS011;5547;42.672;23.230;2023-06-04T03:03:27;8.33;;;6.13;;
10987;SDS011;5547;42.672;23.230;2023-06-04T03:06:27;7.23;;;5.93;;
10987;SDS011;5547;42.672;23.230;2023-06-04T03:09:32;5.88;;;4.97;;
10987;SDS011;5547;42.672;23.230;2023-06-04T03:12:33;5.75;;;5.03;;
10987;SDS011;5547;42.672;23.230;2023-06-04T03:15:34;6.53;;;5.33;;
10987;SDS011;5547;42.672;23.230;2023-06-04T03:18:41;5.63;;;5.10;;
10987;SDS011;5547;42.672;23.230;2023-06-04T03:21:42;5.25;;;4.68;;
10987;SDS011;5547;42.672;23.230;2023-06-04T03:24:44;5.40;;;4.90;;
10987;SDS011;5547;42.672;23.230;2023-06-04T03:27:45;4.97;;;4.30;;
10987;SDS011;5547;42.672;23.230;2023-06-04T03:30:45;5.47;;;4.53;;
10987;SDS011;5547;42.672;23.230;2023-06-04T03:33:46;5.68;;;4.70;;
10987;SDS011;5547;42.672;23.230;2023-06-04T03:36:47;5.80;;;4.70;;
10987;SDS011;5547;42.672;23.230;2023-06-04T03:39:47;5.87;;;5.27;;
10987;SDS011;5547;42.672;23.230;2023-06-04T03:42:48;6.93;;;5.80;;
10987;SDS011;5547;42.672;23.230;2023-06-04T03:45:48;6.30;;;5.60;;
10987;SDS011;5547;42.672;23.230;2023-06-04T03:48:49;7.57;;;6.07;;
10987;SDS011;5547;42.672;23.230;2023-06-04T03:51:50;6.85;;;5.55;;
10987;SDS011;5547;42.672;23.230;2023-06-04T03:54:51;7.35;;;6.15;;
10987;SDS011;5547;42.672;23.230;2023-06-04T03:57:51;7.18;;;6.25;;
10987;SDS011;5547;42.672;23.230;2023-06-04T04:00:51;7.63;;;6.53;;
10987;SDS011;5547;42.672;23.230;2023-06-04T04:03:52;8.00;;;6.20;;
10987;SDS011;5547;42.672;23.230;2023-06-04T04:06:53;8.40;;;6.80;;
10987;SDS011;5547;42.672;23.230;2023-06-04T04:09:53;7.97;;;6.38;;
10987;SDS011;5547;42.672;23.230;2023-06-04T04:12:54;7.80;;;6.67;;
10987;SDS011;5547;42.672;23.230;2023-06-04T04:15:57;6.93;;;5.93;;
10987;SDS011;5547;42.672;23.230;2023-06-04T04:18:58;7.57;;;6.70;;
10987;SDS011;5547;42.672;23.230;2023-06-04T04:21:58;7.57;;;6.37;;
10987;SDS011;5547;42.672;23.230;2023-06-04T04:24:59;7.90;;;6.60;;
10987;SDS011;5547;42.672;23.230;2023-06-04T04:27:59;8.23;;;6.30;;
10987;SDS011;5547;42.672;23.230;2023-06-04T04:31:00;7.27;;;5.93;;
10987;SDS011;5547;42.672;23.230;2023-06-04T04:34:02;7.68;;;6.20;;
10987;SDS011;5547;42.672;23.230;2023-06-04T04:37:07;6.28;;;5.65;;
10987;SDS011;5547;42.672;23.230;2023-06-04T04:40:08;8.23;;;6.07;;
10987;SDS011;5547;42.672;23.230;2023-06-04T04:43:12;6.78;;;6.05;;
10987;SDS011;5547;42.672;23.230;2023-06-04T04:46:12;6.90;;;6.00;;
10987;SDS011;5547;42.672;23.230;2023-06-04T04:49:13;7.40;;;6.30;;
10987;SDS011;5547;42.672;23.230;2023-06-04T04:52:13;7.97;;;6.47;;
10987;SDS011;5547;42.672;23.230;2023-06-04T04:55:14;6.97;;;6.10;;
10987;SDS011;5547;42.672;23.230;2023-06-04T04:58:14;8.40;;;6.30;;
10987;SDS011;5547;42.672;23.230;2023-06-04T05:01:15;6.85;;;6.13;;
10987;SDS011;5547;42.672;23.230;2023-06-04T05:04:15;7.93;;;6.87;;
10987;SDS011;5547;42.672;23.230;2023-06-04T05:07:16;9.70;;;7.50;;
10987;SDS011;5547;42.672;23.230;2023-06-04T05:10:16;10.03;;;6.87;;
10987;SDS011;5547;42.672;23.230;2023-06-04T05:13:17;7.13;;;6.43;;
10987;SDS011;5547;42.672;23.230;2023-06-04T05:16:18;7.10;;;6.38;;
10987;SDS011;5547;42.672;23.230;2023-06-04T05:19:20;7.50;;;6.68;;
10987;SDS011;5547;42.672;23.230;2023-06-04T05:22:20;7.87;;;7.07;;
10987;SDS011;5547;42.672;23.230;2023-06-04T05:25:21;8.48;;;6.63;;
10987;SDS011;5547;42.672;23.230;2023-06-04T05:28:22;7.78;;;6.65;;
10987;SDS011;5547;42.672;23.230;2023-06-04T05:31:25;6.88;;;6.07;;
10987;SDS011;5547;42.672;23.230;2023-06-04T05:34:28;7.93;;;7.10;;
10987;SDS011;5547;42.672;23.230;2023-06-04T05:37:29;9.40;;;7.43;;
10987;SDS011;5547;42.672;23.230;2023-06-04T05:40:30;9.70;;;7.18;;
10987;SDS011;5547;42.672;23.230;2023-06-04T05:43:30;8.20;;;7.37;;
10987;SDS011;5547;42.672;23.230;2023-06-04T05:46:31;8.27;;;7.47;;
10987;SDS011;5547;42.672;23.230;2023-06-04T05:49:33;9.73;;;8.10;;
10987;SDS011;5547;42.672;23.230;2023-06-04T05:52:34;8.48;;;7.60;;
10987;SDS011;5547;42.672;23.230;2023-06-04T05:55:36;9.68;;;7.45;;
10987;SDS011;5547;42.672;23.230;2023-06-04T05:58:37;8.57;;;7.30;;
10987;SDS011;5547;42.672;23.230;2023-06-04T06:01:37;8.73;;;7.50;;
10987;SDS011;5547;42.672;23.230;2023-06-04T06:04:38;9.23;;;7.40;;
10987;SDS011;5547;42.672;23.230;2023-06-04T06:07:38;8.30;;;7.30;;
10987;SDS011;5547;42.672;23.230;2023-06-04T06:10:38;10.73;;;7.63;;
10987;SDS011;5547;42.672;23.230;2023-06-04T06:13:39;10.13;;;8.45;;
10987;SDS011;5547;42.672;23.230;2023-06-04T06:16:39;8.93;;;7.10;;
10987;SDS011;5547;42.672;23.230;2023-06-04T06:19:40;8.87;;;7.80;;
10987;SDS011;5547;42.672;23.230;2023-06-04T06:22:40;8.70;;;7.80;;
10987;SDS011;5547;42.672;23.230;2023-06-04T06:25:41;9.43;;;7.70;;
10987;SDS011;5547;42.672;23.230;2023-06-04T06:28:42;10.30;;;8.03;;
10987;SDS011;5547;42.672;23.230;2023-06-04T06:31:42;11.38;;;8.82;;
10987;SDS011;5547;42.672;23.230;2023-06-04T06:34:43;11.60;;;9.00;;
10987;SDS011;5547;42.672;23.230;2023-06-04T06:37:43;11.52;;;8.73;;
10987;SDS011;5547;42.672;23.230;2023-06-04T06:40:44;10.75;;;9.35;;
10987;SDS011;5547;42.672;23.230;2023-06-04T06:43:44;11.90;;;9.37;;
10987;SDS011;5547;42.672;23.230;2023-06-04T06:46:44;15.10;;;10.00;;
10987;SDS011;5547;42.672;23.230;2023-06-04T06:49:45;12.23;;;9.90;;
10987;SDS011;5547;42.672;23.230;2023-06-04T06:52:45;12.80;;;9.93;;
10987;SDS011;5547;42.672;23.230;2023-06-04T06:55:46;12.63;;;10.20;;
10987;SDS011;5547;42.672;23.230;2023-06-04T06:58:46;12.77;;;9.57;;
10987;SDS011;5547;42.672;23.230;2023-06-04T07:01:46;15.90;;;10.83;;
10987;SDS011;5547;42.672;23.230;2023-06-04T07:04:47;12.73;;;10.03;;
10987;SDS011;5547;42.672;23.230;2023-06-04T07:07:48;12.00;;;9.73;;
10987;SDS011;5547;42.672;23.230;2023-06-04T07:10:48;12.30;;;8.70;;
10987;SDS011;5547;42.672;23.230;2023-06-04T07:13:49;10.43;;;9.10;;
10987;SDS011;5547;42.672;23.230;2023-06-04T07:16:49;12.83;;;9.80;;
10987;SDS011;5547;42.672;23.230;2023-06-04T07:19:49;11.40;;;9.53;;
10987;SDS011;5547;42.672;23.230;2023-06-04T07:22:50;11.60;;;9.37;;
10987;SDS011;5547;42.672;23.230;2023-06-04T07:25:50;11.67;;;9.73;;
10987;SDS011;5547;42.672;23.230;2023-06-04T07:28:51;11.55;;;9.32;;
10987;SDS011;5547;42.672;23.230;2023-06-04T07:31:51;11.23;;;8.87;;
10987;SDS011;5547;42.672;23.230;2023-06-04T07:34:52;12.47;;;9.40;;
10987;SDS011;5547;42.672;23.230;2023-06-04T07:37:52;13.00;;;9.83;;
10987;SDS011;5547;42.672;23.230;2023-06-04T07:40:53;12.48;;;9.20;;
10987;SDS011;5547;42.672;23.230;2023-06-04T07:43:53;11.55;;;8.93;;
10987;SDS011;5547;42.672;23.230;2023-06-04T07:46:54;12.40;;;8.47;;
10987;SDS011;5547;42.672;23.230;2023-06-04T07:49:54;13.07;;;9.57;;
10987;SDS011;5547;42.672;23.230;2023-06-04T07:52:55;11.53;;;9.20;;
10987;SDS011;5547;42.672;23.230;2023-06-04T07:55:55;9.40;;;8.40;;
10987;SDS011;5547;42.672;23.230;2023-06-04T07:58:56;10.10;;;8.05;;
10987;SDS011;5547;42.672;23.230;2023-06-04T08:01:56;10.63;;;8.57;;
10987;SDS011;5547;42.672;23.230;2023-06-04T08:04:57;11.47;;;9.50;;
10987;SDS011;5547;42.672;23.230;2023-06-04T08:07:57;12.07;;;9.30;;
10987;SDS011;5547;42.672;23.230;2023-06-04T08:10:58;12.50;;;9.53;;
10987;SDS011;5547;42.672;23.230;2023-06-04T08:13:58;10.57;;;8.43;;
10987;SDS011;5547;42.672;23.230;2023-06-04T08:16:58;13.57;;;11.47;;
10987;SDS011;5547;42.672;23.230;2023-06-04T08:19:59;14.43;;;11.00;;
10987;SDS011;5547;42.672;23.230;2023-06-04T08:22:59;13.43;;;10.43;;
10987;SDS011;5547;42.672;23.230;2023-06-04T08:26:00;13.67;;;10.20;;
10987;SDS011;5547;42.672;23.230;2023-06-04T08:29:01;13.20;;;10.30;;
10987;SDS011;5547;42.672;23.230;2023-06-04T08:32:04;13.47;;;10.87;;
10987;SDS011;5547;42.672;23.230;2023-06-04T08:35:04;12.80;;;10.32;;
10987;SDS011;5547;42.672;23.230;2023-06-04T08:38:05;14.60;;;10.48;;
10987;SDS011;5547;42.672;23.230;2023-06-04T08:41:15;15.40;;;11.07;;
10987;SDS011;5547;42.672;23.230;2023-06-04T08:44:20;15.88;;;11.40;;
10987;SDS011;5547;42.672;23.230;2023-06-04T08:47:20;15.57;;;10.97;;
10987;SDS011;5547;42.672;23.230;2023-06-04T08:50:25;14.00;;;10.57;;
10987;SDS011;5547;42.672;23.230;2023-06-04T08:53:26;13.02;;;10.07;;
10987;SDS011;5547;42.672;23.230;2023-06-04T08:56:27;15.48;;;11.15;;
10987;SDS011;5547;42.672;23.230;2023-06-04T08:59:32;15.70;;;11.50;;
10987;SDS011;5547;42.672;23.230;2023-06-04T09:02:33;16.13;;;11.70;;
10987;SDS011;5547;42.672;23.230;2023-06-04T09:05:38;16.02;;;11.98;;
10987;SDS011;5547;42.672;23.230;2023-06-04T09:08:39;16.38;;;12.68;;
10987;SDS011;5547;42.672;23.230;2023-06-04T09:11:51;17.90;;;14.55;;
10987;SDS011;5547;42.672;23.230;2023-06-04T09:14:52;16.15;;;11.98;;
10987;SDS011;5547;42.672;23.230;2023-06-04T09:17:52;16.13;;;11.67;;
10987;SDS011;5547;42.672;23.230;2023-06-04T09:21:00;14.27;;;10.73;;
10987;SDS011;5547;42.672;23.230;2023-06-04T09:24:01;14.45;;;10.80;;
10987;SDS011;5547;42.672;23.230;2023-06-04T09:27:08;13.77;;;10.37;;
10987;SDS011;5547;42.672;23.230;2023-06-04T09:30:09;14.77;;;10.93;;
10987;SDS011;5547;42.672;23.230;2023-06-04T09:33:10;13.55;;;9.80;;
10987;SDS011;5547;42.672;23.230;2023-06-04T09:36:12;13.93;;;10.50;;
10987;SDS011;5547;42.672;23.230;2023-06-04T09:39:15;15.32;;;10.63;;
10987;SDS011;5547;42.672;23.230;2023-06-04T09:42:17;15.20;;;11.68;;
10987;SDS011;5547;42.672;23.230;2023-06-04T09:45:27;13.70;;;10.97;;
10987;SDS011;5547;42.672;23.230;2023-06-04T09:48:31;14.18;;;10.73;;
10987;SDS011;5547;42.672;23.230;2023-06-04T09:51:32;13.90;;;9.70;;
10987;SDS011;5547;42.672;23.230;2023-06-04T09:54:36;11.40;;;9.57;;
10987;SDS011;5547;42.672;23.230;2023-06-04T09:57:37;13.40;;;10.45;;
10987;SDS011;5547;42.672;23.230;2023-06-04T10:00:39;13.65;;;8.82;;
10987;SDS011;5547;42.672;23.230;2023-06-04T10:03:42;12.45;;;9.60;;
10987;SDS011;5547;42.672;23.230;2023-06-04T10:06:48;11.48;;;8.80;;
10987;SDS011;5547;42.672;23.230;2023-06-04T10:09:49;11.43;;;9.50;;
10987;SDS011;5547;42.672;23.230;2023-06-04T10:13:01;17.27;;;10.80;;
10987;SDS011;5547;42.672;23.230;2023-06-04T10:16:06;14.27;;;11.48;;
10987;SDS011;5547;42.672;23.230;2023-06-04T10:19:07;13.27;;;10.02;;
10987;SDS011;5547;42.672;23.230;2023-06-04T10:22:08;12.63;;;10.40;;
10987;SDS011;5547;42.672;23.230;2023-06-04T10:25:11;11.33;;;9.83;;
10987;SDS011;5547;42.672;23.230;2023-06-04T10:28:12;13.85;;;10.77;;
10987;SDS011;5547;42.672;23.230;2023-06-04T10:31:15;13.27;;;11.13;;
10987;SDS011;5547;42.672;23.230;2023-06-04T10:34:15;13.90;;;10.57;;
10987;SDS011;5547;42.672;23.230;2023-06-04T10:37:18;12.18;;;10.07;;
10987;SDS011;5547;42.672;23.230;2023-06-04T10:40:30;12.32;;;9.93;;
10987;SDS011;5547;42.672;23.230;2023-06-04T10:43:33;12.23;;;9.70;;
10987;SDS011;5547;42.672;23.230;2023-06-04T10:46:38;12.20;;;9.80;;
10987;SDS011;5547;42.672;23.230;2023-06-04T10:49:41;11.02;;;9.73;;
10987;SDS011;5547;42.672;23.230;2023-06-04T10:52:54;12.77;;;9.37;;
10987;SDS011;5547;42.672;23.230;2023-06-04T10:55:58;11.38;;;8.45;;
10987;SDS011;5547;42.672;23.230;2023-06-04T10:59:00;11.38;;;8.30;;
10987;SDS011;5547;42.672;23.230;2023-06-04T11:02:13;11.07;;;8.73;;
10987;SDS011;5547;42.672;23.230;2023-06-04T11:05:15;11.53;;;8.60;;
10987;SDS011;5547;42.672;23.230;2023-06-04T11:08:25;12.15;;;8.85;;
10987;SDS011;5547;42.672;23.230;2023-06-04T11:11:28;10.57;;;8.57;;
10987;SDS011;5547;42.672;23.230;2023-06-04T11:14:30;11.93;;;9.68;;
10987;SDS011;5547;42.672;23.230;2023-06-04T11:17:32;13.73;;;8.90;;
10987;SDS011;5547;42.672;23.230;2023-06-04T11:20:36;9.77;;;8.57;;
10987;SDS011;5547;42.672;23.230;2023-06-04T11:23:36;12.80;;;8.67;;
10987;SDS011;5547;42.672;23.230;2023-06-04T11:26:37;11.30;;;9.00;;
10987;SDS011;5547;42.672;23.230;2023-06-04T11:29:37;10.27;;;7.93;;
10987;SDS011;5547;42.672;23.230;2023-06-04T11:32:38;10.50;;;8.80;;
10987;SDS011;5547;42.672;23.230;2023-06-04T11:35:42;10.03;;;8.93;;
10987;SDS011;5547;42.672;23.230;2023-06-04T11:38:43;9.65;;;7.93;;
10987;SDS011;5547;42.672;23.230;2023-06-04T11:41:54;10.55;;;8.10;;
10987;SDS011;5547;42.672;23.230;2023-06-04T11:44:57;9.43;;;8.47;;
10987;SDS011;5547;42.672;23.230;2023-06-04T11:47:58;9.43;;;8.53;;
10987;SDS011;5547;42.672;23.230;2023-06-04T11:50:58;10.20;;;8.57;;
10987;SDS011;5547;42.672;23.230;2023-06-04T11:54:04;9.27;;;8.38;;
10987;SDS011;5547;42.672;23.230;2023-06-04T11:57:05;9.70;;;8.70;;
10987;SDS011;5547;42.672;23.230;2023-06-04T12:00:07;10.80;;;9.07;;
10987;SDS011;5547;42.672;23.230;2023-06-04T12:03:11;9.43;;;8.43;;
10987;SDS011;5547;42.672;23.230;2023-06-04T12:06:12;9.47;;;8.53;;
10987;SDS011;5547;42.672;23.230;2023-06-04T12:09:20;9.55;;;7.55;;
10987;SDS011;5547;42.672;23.230;2023-06-04T12:12:22;8.77;;;7.88;;
10987;SDS011;5547;42.672;23.230;2023-06-04T12:15:23;9.13;;;8.00;;
10987;SDS011;5547;42.672;23.230;2023-06-04T12:18:24;8.90;;;7.70;;
10987;SDS011;5547;42.672;23.230;2023-06-04T12:21:25;9.30;;;8.40;;
10987;SDS011;5547;42.672;23.230;2023-06-04T12:24:26;9.50;;;8.10;;
10987;SDS011;5547;42.672;23.230;2023-06-04T12:27:27;12.45;;;8.43;;
10987;SDS011;5547;42.672;23.230;2023-06-04T12:30:35;9.40;;;8.50;;
10987;SDS011;5547;42.672;23.230;2023-06-04T12:33:40;10.13;;;9.13;;
10987;SDS011;5547;42.672;23.230;2023-06-04T12:36:41;9.85;;;8.85;;
10987;SDS011;5547;42.672;23.230;2023-06-04T12:39:42;10.20;;;9.20;;
10987;SDS011;5547;42.672;23.230;2023-06-04T12:42:44;10.95;;;9.77;;
10987;SDS011;5547;42.672;23.230;2023-06-04T12:45:45;10.50;;;9.40;;
10987;SDS011;5547;42.672;23.230;2023-06-04T12:48:47;11.13;;;10.05;;
10987;SDS011;5547;42.672;23.230;2023-06-04T12:51:48;11.50;;;10.30;;
10987;SDS011;5547;42.672;23.230;2023-06-04T12:54:49;12.40;;;11.13;;
10987;SDS011;5547;42.672;23.230;2023-06-04T12:57:49;11.90;;;10.63;;
10987;SDS011;5547;42.672;23.230;2023-06-04T13:00:50;11.60;;;10.40;;
10987;SDS011;5547;42.672;23.230;2023-06-04T13:03:52;11.57;;;10.43;;
10987;SDS011;5547;42.672;23.230;2023-06-04T13:06:52;11.37;;;10.23;;
10987;SDS011;5547;42.672;23.230;2023-06-04T13:09:58;10.77;;;9.50;;
10987;SDS011;5547;42.672;23.230;2023-06-04T13:12:59;11.38;;;10.25;;
10987;SDS011;5547;42.672;23.230;2023-06-04T13:15:59;11.93;;;10.73;;
10987;SDS011;5547;42.672;23.230;2023-06-04T13:19:00;11.97;;;10.77;;
10987;SDS011;5547;42.672;23.230;2023-06-04T13:22:00;12.07;;;10.87;;
10987;SDS011;5547;42.672;23.230;2023-06-04T13:25:01;13.00;;;11.73;;
10987;SDS011;5547;42.672;23.230;2023-06-04T13:28:01;13.43;;;12.03;;
10987;SDS011;5547;42.672;23.230;2023-06-04T13:31:03;12.82;;;11.52;;
10987;SDS011;5547;42.672;23.230;2023-06-04T13:34:03;13.00;;;11.80;;
10987;SDS011;5547;42.672;23.230;2023-06-04T13:37:03;12.80;;;11.37;;
10987;SDS011;5547;42.672;23.230;2023-06-04T13:40:04;12.97;;;11.57;;
10987;SDS011;5547;42.672;23.230;2023-06-04T13:43:05;13.65;;;12.27;;
10987;SDS011;5547;42.672;23.230;2023-06-04T13:46:08;12.88;;;11.57;;
10987;SDS011;5547;42.672;23.230;2023-06-04T13:49:09;12.97;;;11.20;;
10987;SDS011;5547;42.672;23.230;2023-06-04T13:52:09;12.33;;;11.07;;
10987;SDS011;5547;42.672;23.230;2023-06-04T13:55:11;11.87;;;10.67;;
10987;SDS011;5547;42.672;23.230;2023-06-04T13:58:12;11.77;;;10.67;;
10987;SDS011;5547;42.672;23.230;2023-06-04T14:01:14;11.88;;;9.45;;
10987;SDS011;5547;42.672;23.230;2023-06-04T14:04:15;10.00;;;8.90;;
10987;SDS011;5547;42.672;23.230;2023-06-04T14:07:16;9.70;;;8.80;;
10987;SDS011;5547;42.672;23.230;2023-06-04T14:10:17;10.10;;;9.13;;
10987;SDS011;5547;42.672;23.230;2023-06-04T14:13:17;9.43;;;8.53;;
10987;SDS011;5547;42.672;23.230;2023-06-04T14:16:18;9.63;;;8.63;;
10987;SDS011;5547;42.672;23.230;2023-06-04T14:19:18;9.10;;;8.27;;
10987;SDS011;5547;42.672;23.230;2023-06-04T14:22:18;9.68;;;8.68;;
10987;SDS011;5547;42.672;23.230;2023-06-04T14:25:19;10.30;;;9.23;;
10987;SDS011;5547;42.672;23.230;2023-06-04T14:28:20;16.80;;;11.70;;
10987;SDS011;5547;42.672;23.230;2023-06-04T14:31:20;17.43;;;13.77;;
10987;SDS011;5547;42.672;23.230;2023-06-04T14:34:21;18.27;;;13.15;;
10987;SDS011;5547;42.672;23.230;2023-06-04T14:37:21;14.97;;;12.77;;
10987;SDS011;5547;42.672;23.230;2023-06-04T14:40:22;23.33;;;16.43;;
10987;SDS011;5547;42.672;23.230;2023-06-04T14:43:23;21.53;;;17.33;;
10987;SDS011;5547;42.672;23.230;2023-06-04T14:46:23;19.77;;;16.98;;
10987;SDS011;5547;42.672;23.230;2023-06-04T14:49:25;21.95;;;18.45;;
10987;SDS011;5547;42.672;23.230;2023-06-04T14:52:25;21.73;;;17.97;;
10987;SDS011;5547;42.672;23.230;2023-06-04T14:55:27;17.95;;;15.13;;
10987;SDS011;5547;42.672;23.230;2023-06-04T14:58:28;22.67;;;16.93;;
10987;SDS011;5547;42.672;23.230;2023-06-04T15:01:28;20.43;;;15.97;;
10987;SDS011;5547;42.672;23.230;2023-06-04T15:04:29;16.63;;;13.67;;
10987;SDS011;5547;42.672;23.230;2023-06-04T15:07:29;17.07;;;13.37;;
10987;SDS011;5547;42.672;23.230;2023-06-04T15:10:30;18.87;;;15.17;;
10987;SDS011;5547;42.672;23.230;2023-06-04T15:13:31;19.10;;;15.18;;
10987;SDS011;5547;42.672;23.230;2023-06-04T15:16:31;19.83;;;15.23;;
10987;SDS011;5547;42.672;23.230;2023-06-04T15:19:32;19.03;;;15.40;;
10987;SDS011;5547;42.672;23.230;2023-06-04T15:22:33;17.23;;;14.52;;
10987;SDS011;5547;42.672;23.230;2023-06-04T15:25:33;17.83;;;14.65;;
10987;SDS011;5547;42.672;23.230;2023-06-04T15:28:34;16.53;;;14.17;;
10987;SDS011;5547;42.672;23.230;2023-06-04T15:31:34;16.57;;;13.93;;
10987;SDS011;5547;42.672;23.230;2023-06-04T15:34:34;17.83;;;13.83;;
10987;SDS011;5547;42.672;23.230;2023-06-04T15:37:35;13.77;;;12.00;;
10987;SDS011;5547;42.672;23.230;2023-06-04T15:40:35;17.10;;;14.67;;
10987;SDS011;5547;42.672;23.230;2023-06-04T15:43:36;17.23;;;12.43;;
10987;SDS011;5547;42.672;23.230;2023-06-04T15:46:36;14.17;;;11.43;;
10987;SDS011;5547;42.672;23.230;2023-06-04T15:49:38;14.50;;;12.18;;
10987;SDS011;5547;42.672;23.230;2023-06-04T15:52:39;14.60;;;12.10;;
10987;SDS011;5547;42.672;23.230;2023-06-04T15:55:39;14.40;;;11.43;;
10987;SDS011;5547;42.672;23.230;2023-06-04T15:58:40;13.53;;;11.83;;
10987;SDS011;5547;42.672;23.230;2023-06-04T16:01:40;13.60;;;10.23;;
10987;SDS011;5547;42.672;23.230;2023-06-04T16:04:42;13.13;;;10.20;;
10987;SDS011;5547;42.672;23.230;2023-06-04T16:07:44;10.35;;;9.07;;
10987;SDS011;5547;42.672;23.230;2023-06-04T16:10:45;10.57;;;9.48;;
10987;SDS011;5547;42.672;23.230;2023-06-04T16:13:46;12.88;;;10.70;;
10987;SDS011;5547;42.672;23.230;2023-06-04T16:16:46;13.07;;;11.33;;
10987;SDS011;5547;42.672;23.230;2023-06-04T16:19:47;12.93;;;11.02;;
10987;SDS011;5547;42.672;23.230;2023-06-04T16:22:48;15.05;;;11.90;;
10987;SDS011;5547;42.672;23.230;2023-06-04T16:25:48;19.50;;;16.37;;
10987;SDS011;5547;42.672;23.230;2023-06-04T16:28:50;25.83;;;18.57;;
10987;SDS011;5547;42.672;23.230;2023-06-04T16:31:50;24.77;;;18.40;;
10987;SDS011;5547;42.672;23.230;2023-06-04T16:34:51;18.67;;;14.17;;
10987;SDS011;5547;42.672;23.230;2023-06-04T16:37:53;16.20;;;13.27;;
10987;SDS011;5547;42.672;23.230;2023-06-04T16:40:53;18.98;;;16.10;;
10987;SDS011;5547;42.672;23.230;2023-06-04T16:43:55;19.08;;;17.02;;
10987;SDS011;5547;42.672;23.230;2023-06-04T16:46:55;14.32;;;12.85;;
10987;SDS011;5547;42.672;23.230;2023-06-04T16:49:56;14.03;;;12.53;;
10987;SDS011;5547;42.672;23.230;2023-06-04T16:52:58;15.70;;;14.00;;
10987;SDS011;5547;42.672;23.230;2023-06-04T16:55:59;15.65;;;13.75;;
10987;SDS011;5547;42.672;23.230;2023-06-04T16:58:59;14.57;;;13.07;;
10987;SDS011;5547;42.672;23.230;2023-06-04T17:02:00;15.10;;;12.70;;
10987;SDS011;5547;42.672;23.230;2023-06-04T17:05:00;15.43;;;13.60;;
10987;SDS011;5547;42.672;23.230;2023-06-04T17:08:01;14.57;;;12.95;;
10987;SDS011;5547;42.672;23.230;2023-06-04T17:11:01;15.83;;;14.13;;
10987;SDS011;5547;42.672;23.230;2023-06-04T17:14:02;16.73;;;14.43;;
10987;SDS011;5547;42.672;23.230;2023-06-04T17:17:02;17.07;;;15.23;;
10987;SDS011;5547;42.672;23.230;2023-06-04T17:20:03;18.70;;;15.95;;
10987;SDS011;5547;42.672;23.230;2023-06-04T17:23:17;19.58;;;17.00;;
10987;SDS011;5547;42.672;23.230;2023-06-04T17:26:22;20.17;;;17.37;;
10987;SDS011;5547;42.672;23.230;2023-06-04T17:29:23;19.45;;;17.25;;
10987;SDS011;5547;42.672;23.230;2023-06-04T17:32:23;22.50;;;18.43;;
10987;SDS011;5547;42.672;23.230;2023-06-04T17:35:24;22.38;;;18.77;;
10987;SDS011;5547;42.672;23.230;2023-06-04T17:38:25;20.90;;;18.48;;
10987;SDS011;5547;42.672;23.230;2023-06-04T17:41:25;21.95;;;18.05;;
10987;SDS011;5547;42.672;23.230;2023-06-04T17:44:26;21.00;;;18.73;;
10987;SDS011;5547;42.672;23.230;2023-06-04T17:47:27;21.48;;;18.35;;
10987;SDS011;5547;42.672;23.230;2023-06-04T17:50:27;22.58;;;19.52;;
10987;SDS011;5547;42.672;23.230;2023-06-04T17:53:28;26.30;;;21.52;;